sensor_id;sensor_type;location;lat;lon;timestamp;pressure;altitude;pressure_sealevel;temperature;humidity
82006;BME280;71529;47.484;19.064;2024-01-30T00:00:37;102841.03;;;4.63;67.80
82006;BME280;71529;47.484;19.064;2024-01-30T00:03:07;102842.66;;;4.68;70.41
82006;BME280;71529;47.484;19.064;2024-01-30T00:05:36;102843.69;;;4.63;72.95
82006;BME280;71529;47.484;19.064;2024-01-30T00:08:06;102848.22;;;4.58;67.07
82006;BME280;71529;47.484;19.064;2024-01-30T00:10:34;102836.19;;;4.44;74.27
82006;BME280;71529;47.484;19.064;2024-01-30T00:13:04;102842.31;;;4.46;68.84
82006;BME280;71529;47.484;19.064;2024-01-30T00:15:35;102845.13;;;4.39;69.72
82006;BME280;71529;47.484;19.064;2024-01-30T00:18:04;102833.84;;;4.32;66.65
82006;BME280;71529;47.484;19.064;2024-01-30T00:20:33;102841.06;;;4.26;70.08
82006;BME280;71529;47.484;19.064;2024-01-30T00:23:02;102847.19;;;4.28;71.46
82006;BME280;71529;47.484;19.064;2024-01-30T00:25:31;102841.13;;;4.21;67.59
82006;BME280;71529;47.484;19.064;2024-01-30T00:28:00;102844.47;;;4.31;67.46
82006;BME280;71529;47.484;19.064;2024-01-30T00:30:30;102847.84;;;4.36;69.86
82006;BME280;71529;47.484;19.064;2024-01-30T00:33:02;102849.59;;;4.38;71.18
82006;BME280;71529;47.484;19.064;2024-01-30T00:35:30;102852.09;;;4.43;71.45
82006;BME280;71529;47.484;19.064;2024-01-30T00:37:59;102855.66;;;4.42;75.98
82006;BME280;71529;47.484;19.064;2024-01-30T00:40:28;102854.75;;;4.43;70.82
82006;BME280;71529;47.484;19.064;2024-01-30T00:42:57;102856.25;;;4.53;71.03
82006;BME280;71529;47.484;19.064;2024-01-30T00:45:26;102854.28;;;4.63;73.45
82006;BME280;71529;47.484;19.064;2024-01-30T00:47:55;102853.63;;;4.53;68.65
82006;BME280;71529;47.484;19.064;2024-01-30T00:50:26;102849.16;;;4.55;72.28
82006;BME280;71529;47.484;19.064;2024-01-30T00:52:56;102857.22;;;4.50;72.44
82006;BME280;71529;47.484;19.064;2024-01-30T00:55:25;102854.63;;;4.49;72.71
82006;BME280;71529;47.484;19.064;2024-01-30T00:57:54;102849.88;;;4.26;69.58
82006;BME280;71529;47.484;19.064;2024-01-30T01:00:23;102850.25;;;4.10;70.40
82006;BME280;71529;47.484;19.064;2024-01-30T01:02:54;102851.06;;;4.12;67.63
82006;BME280;71529;47.484;19.064;2024-01-30T01:05:26;102849.41;;;4.08;70.98
82006;BME280;71529;47.484;19.064;2024-01-30T01:07:56;102848.31;;;4.16;73.00
82006;BME280;71529;47.484;19.064;2024-01-30T01:10:25;102844.38;;;4.34;71.90
82006;BME280;71529;47.484;19.064;2024-01-30T01:12:53;102838.50;;;4.21;68.20
82006;BME280;71529;47.484;19.064;2024-01-30T01:15:22;102842.06;;;4.20;70.58
82006;BME280;71529;47.484;19.064;2024-01-30T01:17:51;102840.34;;;4.19;69.69
82006;BME280;71529;47.484;19.064;2024-01-30T01:20:20;102844.69;;;4.20;73.25
82006;BME280;71529;47.484;19.064;2024-01-30T01:22:52;102841.19;;;4.20;73.63
82006;BME280;71529;47.484;19.064;2024-01-30T01:25:21;102841.09;;;4.24;72.03
82006;BME280;71529;47.484;19.064;2024-01-30T01:27:50;102839.69;;;4.08;69.42
82006;BME280;71529;47.484;19.064;2024-01-30T01:30:20;102833.47;;;4.09;71.50
82006;BME280;71529;47.484;19.064;2024-01-30T01:32:53;102835.22;;;4.12;71.25
82006;BME280;71529;47.484;19.064;2024-01-30T01:35:29;102836.84;;;4.17;73.87
82006;BME280;71529;47.484;19.064;2024-01-30T01:38:00;102830.00;;;4.07;73.86
82006;BME280;71529;47.484;19.064;2024-01-30T01:40:29;102835.25;;;4.10;74.06
82006;BME280;71529;47.484;19.064;2024-01-30T01:42:58;102835.75;;;4.26;73.45
82006;BME280;71529;47.484;19.064;2024-01-30T01:45:27;102825.25;;;4.21;68.96
82006;BME280;71529;47.484;19.064;2024-01-30T01:47:56;102827.22;;;4.13;70.11
82006;BME280;71529;47.484;19.064;2024-01-30T01:50:25;102824.47;;;4.18;71.47
82006;BME280;71529;47.484;19.064;2024-01-30T01:52:55;102819.13;;;4.21;69.70
82006;BME280;71529;47.484;19.064;2024-01-30T01:55:27;102821.56;;;4.28;71.33
82006;BME280;71529;47.484;19.064;2024-01-30T01:57:58;102834.25;;;4.16;68.26
82006;BME280;71529;47.484;19.064;2024-01-30T02:00:30;102828.72;;;4.25;74.23
82006;BME280;71529;47.484;19.064;2024-01-30T02:03:00;102832.69;;;4.06;67.77
82006;BME280;71529;47.484;19.064;2024-01-30T02:05:29;102826.75;;;3.96;68.04
82006;BME280;71529;47.484;19.064;2024-01-30T02:07:59;102825.31;;;3.82;67.95
82006;BME280;71529;47.484;19.064;2024-01-30T02:10:31;102827.59;;;3.98;75.93
82006;BME280;71529;47.484;19.064;2024-01-30T02:13:00;102822.66;;;3.82;68.68
82006;BME280;71529;47.484;19.064;2024-01-30T02:15:31;102827.25;;;3.72;68.66
82006;BME280;71529;47.484;19.064;2024-01-30T02:18:00;102822.97;;;3.68;69.20
82006;BME280;71529;47.484;19.064;2024-01-30T02:20:30;102828.94;;;3.76;73.22
82006;BME280;71529;47.484;19.064;2024-01-30T02:23:02;102823.50;;;3.84;69.34
82006;BME280;71529;47.484;19.064;2024-01-30T02:25:33;102819.91;;;3.86;70.94
82006;BME280;71529;47.484;19.064;2024-01-30T02:28:03;102821.66;;;3.87;74.33
82006;BME280;71529;47.484;19.064;2024-01-30T02:30:32;102822.03;;;3.69;70.44
82006;BME280;71529;47.484;19.064;2024-01-30T02:33:01;102821.16;;;3.69;71.67
82006;BME280;71529;47.484;19.064;2024-01-30T02:35:30;102821.13;;;3.72;75.16
82006;BME280;71529;47.484;19.064;2024-01-30T02:38:01;102813.91;;;3.78;76.96
82006;BME280;71529;47.484;19.064;2024-01-30T02:40:31;102821.72;;;3.43;70.13
82006;BME280;71529;47.484;19.064;2024-01-30T02:43:01;102825.13;;;3.48;70.03
82006;BME280;71529;47.484;19.064;2024-01-30T02:45:30;102831.56;;;3.35;72.10
82006;BME280;71529;47.484;19.064;2024-01-30T02:48:00;102823.41;;;3.47;76.48
82006;BME280;71529;47.484;19.064;2024-01-30T02:50:29;102825.31;;;3.41;71.85
82006;BME280;71529;47.484;19.064;2024-01-30T02:52:58;102822.41;;;3.53;75.36
82006;BME280;71529;47.484;19.064;2024-01-30T02:55:30;102824.97;;;3.56;73.32
82006;BME280;71529;47.484;19.064;2024-01-30T02:57:59;102831.00;;;3.62;71.97
82006;BME280;71529;47.484;19.064;2024-01-30T03:00:28;102818.16;;;3.46;70.41
82006;BME280;71529;47.484;19.064;2024-01-30T03:02:57;102819.09;;;3.42;69.88
82006;BME280;71529;47.484;19.064;2024-01-30T03:05:26;102815.66;;;3.38;71.33
82006;BME280;71529;47.484;19.064;2024-01-30T03:07:55;102821.03;;;3.33;72.98
82006;BME280;71529;47.484;19.064;2024-01-30T03:10:24;102818.72;;;3.17;70.76
82006;BME280;71529;47.484;19.064;2024-01-30T03:12:55;102812.38;;;3.25;74.82
82006;BME280;71529;47.484;19.064;2024-01-30T03:15:25;102821.16;;;3.27;73.83
82006;BME280;71529;47.484;19.064;2024-01-30T03:17:54;102820.22;;;3.30;75.27
82006;BME280;71529;47.484;19.064;2024-01-30T03:20:23;102824.50;;;3.37;76.87
82006;BME280;71529;47.484;19.064;2024-01-30T03:22:54;102819.38;;;3.28;73.75
82006;BME280;71529;47.484;19.064;2024-01-30T03:25:23;102828.91;;;3.36;76.10
82006;BME280;71529;47.484;19.064;2024-01-30T03:27:54;102818.91;;;3.51;73.00
82006;BME280;71529;47.484;19.064;2024-01-30T03:30:23;102824.13;;;3.54;73.62
82006;BME280;71529;47.484;19.064;2024-01-30T03:32:52;102828.75;;;3.42;74.33
82006;BME280;71529;47.484;19.064;2024-01-30T03:35:21;102828.19;;;3.27;72.68
82006;BME280;71529;47.484;19.064;2024-01-30T03:37:50;102820.78;;;3.46;75.06
82006;BME280;71529;47.484;19.064;2024-01-30T03:40:19;102821.53;;;3.52;73.75
82006;BME280;71529;47.484;19.064;2024-01-30T03:42:48;102818.78;;;3.57;74.70
82006;BME280;71529;47.484;19.064;2024-01-30T03:45:20;102816.34;;;3.46;73.98
82006;BME280;71529;47.484;19.064;2024-01-30T03:47:49;102815.28;;;3.55;76.42
82006;BME280;71529;47.484;19.064;2024-01-30T03:50:18;102802.47;;;3.78;75.55
82006;BME280;71529;47.484;19.064;2024-01-30T03:52:47;102810.41;;;3.78;71.59
82006;BME280;71529;47.484;19.064;2024-01-30T03:55:16;102806.38;;;3.60;74.80
82006;BME280;71529;47.484;19.064;2024-01-30T03:57:45;102810.66;;;3.66;71.21
82006;BME280;71529;47.484;19.064;2024-01-30T04:00:14;102809.81;;;3.64;76.33
82006;BME280;71529;47.484;19.064;2024-01-30T04:02:46;102804.50;;;3.65;71.81
82006;BME280;71529;47.484;19.064;2024-01-30T04:05:17;102807.47;;;3.50;71.79
82006;BME280;71529;47.484;19.064;2024-01-30T04:07:46;102802.19;;;3.50;75.16
82006;BME280;71529;47.484;19.064;2024-01-30T04:10:15;102800.09;;;3.66;72.55
82006;BME280;71529;47.484;19.064;2024-01-30T04:12:44;102805.75;;;3.48;71.43
82006;BME280;71529;47.484;19.064;2024-01-30T04:15:13;102790.56;;;3.59;75.03
82006;BME280;71529;47.484;19.064;2024-01-30T04:17:42;102795.09;;;3.52;74.36
82006;BME280;71529;47.484;19.064;2024-01-30T04:20:16;102797.56;;;3.61;73.31
82006;BME280;71529;47.484;19.064;2024-01-30T04:22:46;102799.53;;;3.50;70.56
82006;BME280;71529;47.484;19.064;2024-01-30T04:25:15;102795.22;;;3.46;72.12
82006;BME280;71529;47.484;19.064;2024-01-30T04:27:44;102795.44;;;3.35;76.03
82006;BME280;71529;47.484;19.064;2024-01-30T04:30:13;102793.81;;;3.30;70.82
82006;BME280;71529;47.484;19.064;2024-01-30T04:32:45;102791.94;;;3.35;72.70
82006;BME280;71529;47.484;19.064;2024-01-30T04:35:17;102796.25;;;3.41;74.17
82006;BME280;71529;47.484;19.064;2024-01-30T04:37:49;102793.25;;;3.56;73.62
82006;BME280;71529;47.484;19.064;2024-01-30T04:40:19;102803.16;;;3.46;74.34
82006;BME280;71529;47.484;19.064;2024-01-30T04:42:47;102799.59;;;3.49;73.74
82006;BME280;71529;47.484;19.064;2024-01-30T04:45:16;102802.06;;;3.56;73.43
82006;BME280;71529;47.484;19.064;2024-01-30T04:47:45;102798.47;;;3.59;72.71
82006;BME280;71529;47.484;19.064;2024-01-30T04:50:17;102806.53;;;3.54;72.78
82006;BME280;71529;47.484;19.064;2024-01-30T04:52:45;102799.91;;;3.75;73.18
82006;BME280;71529;47.484;19.064;2024-01-30T04:55:15;102799.06;;;3.73;71.29
82006;BME280;71529;47.484;19.064;2024-01-30T04:57:44;102800.16;;;3.63;73.36
82006;BME280;71529;47.484;19.064;2024-01-30T05:00:14;102808.59;;;3.38;72.99
82006;BME280;71529;47.484;19.064;2024-01-30T05:02:43;102810.19;;;3.47;69.77
82006;BME280;71529;47.484;19.064;2024-01-30T05:05:12;102819.78;;;3.53;75.43
82006;BME280;71529;47.484;19.064;2024-01-30T05:07:45;102814.59;;;3.47;70.79
82006;BME280;71529;47.484;19.064;2024-01-30T05:10:14;102817.19;;;3.48;74.33
82006;BME280;71529;47.484;19.064;2024-01-30T05:12:43;102814.66;;;3.44;69.65
82006;BME280;71529;47.484;19.064;2024-01-30T05:15:12;102819.06;;;3.43;74.93
82006;BME280;71529;47.484;19.064;2024-01-30T05:17:41;102820.66;;;3.52;72.35
82006;BME280;71529;47.484;19.064;2024-01-30T05:20:11;102834.38;;;3.26;70.18
82006;BME280;71529;47.484;19.064;2024-01-30T05:22:40;102830.81;;;3.28;74.56
82006;BME280;71529;47.484;19.064;2024-01-30T05:25:13;102836.81;;;3.36;71.36
82006;BME280;71529;47.484;19.064;2024-01-30T05:27:43;102846.44;;;3.39;73.64
82006;BME280;71529;47.484;19.064;2024-01-30T05:30:12;102836.31;;;3.61;76.11
82006;BME280;71529;47.484;19.064;2024-01-30T05:32:41;102839.97;;;3.55;75.49
82006;BME280;71529;47.484;19.064;2024-01-30T05:35:10;102843.59;;;3.50;73.81
82006;BME280;71529;47.484;19.064;2024-01-30T05:37:40;102847.19;;;3.47;74.65
82006;BME280;71529;47.484;19.064;2024-01-30T05:40:10;102840.09;;;3.48;71.59
82006;BME280;71529;47.484;19.064;2024-01-30T05:42:42;102846.38;;;3.44;74.17
82006;BME280;71529;47.484;19.064;2024-01-30T05:45:11;102843.69;;;3.45;71.86
82006;BME280;71529;47.484;19.064;2024-01-30T05:47:40;102836.72;;;3.41;71.31
82006;BME280;71529;47.484;19.064;2024-01-30T05:50:09;102851.69;;;3.42;71.04
82006;BME280;71529;47.484;19.064;2024-01-30T05:52:38;102848.19;;;3.40;71.02
82006;BME280;71529;47.484;19.064;2024-01-30T05:55:07;102847.19;;;3.47;72.67
82006;BME280;71529;47.484;19.064;2024-01-30T05:57:38;102850.84;;;3.40;71.83
82006;BME280;71529;47.484;19.064;2024-01-30T06:00:10;102842.94;;;3.38;70.94
82006;BME280;71529;47.484;19.064;2024-01-30T06:02:39;102848.34;;;3.32;73.36
82006;BME280;71529;47.484;19.064;2024-01-30T06:05:09;102849.34;;;3.25;74.17
82006;BME280;71529;47.484;19.064;2024-01-30T06:07:38;102848.19;;;3.40;74.07
82006;BME280;71529;47.484;19.064;2024-01-30T06:10:08;102853.38;;;3.45;74.40
82006;BME280;71529;47.484;19.064;2024-01-30T06:12:37;102857.84;;;3.41;73.97
82006;BME280;71529;47.484;19.064;2024-01-30T06:15:10;102855.16;;;3.44;71.68
82006;BME280;71529;47.484;19.064;2024-01-30T06:17:39;102852.78;;;3.30;72.46
82006;BME280;71529;47.484;19.064;2024-01-30T06:20:07;102856.41;;;3.26;74.59
82006;BME280;71529;47.484;19.064;2024-01-30T06:22:37;102852.09;;;3.21;75.08
82006;BME280;71529;47.484;19.064;2024-01-30T06:25:07;102851.13;;;3.25;71.38
82006;BME280;71529;47.484;19.064;2024-01-30T06:27:38;102855.63;;;3.20;73.92
82006;BME280;71529;47.484;19.064;2024-01-30T06:30:11;102863.56;;;3.18;72.79
82006;BME280;71529;47.484;19.064;2024-01-30T06:32:40;102861.78;;;3.20;71.88
82006;BME280;71529;47.484;19.064;2024-01-30T06:35:09;102861.88;;;3.16;72.47
82006;BME280;71529;47.484;19.064;2024-01-30T06:37:39;102861.69;;;3.25;72.30
82006;BME280;71529;47.484;19.064;2024-01-30T06:40:09;102871.59;;;3.14;74.78
82006;BME280;71529;47.484;19.064;2024-01-30T06:42:38;102864.53;;;3.14;72.96
82006;BME280;71529;47.484;19.064;2024-01-30T06:45:10;102867.88;;;3.24;74.06
82006;BME280;71529;47.484;19.064;2024-01-30T06:47:39;102873.34;;;3.15;74.74
82006;BME280;71529;47.484;19.064;2024-01-30T06:50:08;102867.09;;;3.19;75.51
82006;BME280;71529;47.484;19.064;2024-01-30T06:52:37;102873.59;;;3.01;71.89
82006;BME280;71529;47.484;19.064;2024-01-30T06:55:07;102871.78;;;3.03;74.41
82006;BME280;71529;47.484;19.064;2024-01-30T06:57:37;102864.72;;;3.04;71.92
82006;BME280;71529;47.484;19.064;2024-01-30T07:00:07;102870.97;;;3.00;71.75
82006;BME280;71529;47.484;19.064;2024-01-30T07:02:39;102872.47;;;3.13;74.18
82006;BME280;71529;47.484;19.064;2024-01-30T07:05:09;102872.59;;;3.07;72.65
82006;BME280;71529;47.484;19.064;2024-01-30T07:07:39;102876.81;;;3.17;74.39
82006;BME280;71529;47.484;19.064;2024-01-30T07:10:08;102872.28;;;3.23;74.56
82006;BME280;71529;47.484;19.064;2024-01-30T07:12:37;102872.69;;;3.02;72.64
82006;BME280;71529;47.484;19.064;2024-01-30T07:15:09;102879.81;;;2.97;72.67
82006;BME280;71529;47.484;19.064;2024-01-30T07:17:42;102873.47;;;3.07;72.54
82006;BME280;71529;47.484;19.064;2024-01-30T07:20:12;102877.03;;;3.05;71.54
82006;BME280;71529;47.484;19.064;2024-01-30T07:22:41;102879.75;;;3.00;74.99
82006;BME280;71529;47.484;19.064;2024-01-30T07:25:10;102878.72;;;3.10;75.41
82006;BME280;71529;47.484;19.064;2024-01-30T07:27:39;102876.06;;;3.10;71.93
82006;BME280;71529;47.484;19.064;2024-01-30T07:30:08;102881.38;;;3.07;75.07
82006;BME280;71529;47.484;19.064;2024-01-30T07:32:37;102877.00;;;3.06;75.43
82006;BME280;71529;47.484;19.064;2024-01-30T07:35:09;102875.81;;;3.24;77.24
82006;BME280;71529;47.484;19.064;2024-01-30T07:37:38;102869.56;;;3.28;73.76
82006;BME280;71529;47.484;19.064;2024-01-30T07:40:08;102858.03;;;3.32;71.72
82006;BME280;71529;47.484;19.064;2024-01-30T07:42:37;102868.72;;;3.26;74.58
82006;BME280;71529;47.484;19.064;2024-01-30T07:45:07;102862.44;;;3.33;72.92
82006;BME280;71529;47.484;19.064;2024-01-30T07:47:36;102860.91;;;3.20;74.75
82006;BME280;71529;47.484;19.064;2024-01-30T07:50:09;102869.50;;;3.31;74.93
82006;BME280;71529;47.484;19.064;2024-01-30T07:52:38;102857.19;;;3.31;73.05
82006;BME280;71529;47.484;19.064;2024-01-30T07:55:07;102864.41;;;3.22;72.13
82006;BME280;71529;47.484;19.064;2024-01-30T07:57:38;102860.88;;;3.21;72.07
82006;BME280;71529;47.484;19.064;2024-01-30T08:00:08;102858.28;;;3.18;70.06
82006;BME280;71529;47.484;19.064;2024-01-30T08:02:37;102862.16;;;2.99;70.59
82006;BME280;71529;47.484;19.064;2024-01-30T08:05:09;102867.97;;;3.19;76.79
82006;BME280;71529;47.484;19.064;2024-01-30T08:07:40;102864.22;;;3.31;76.98
82006;BME280;71529;47.484;19.064;2024-01-30T08:10:11;102864.25;;;3.29;73.06
82006;BME280;71529;47.484;19.064;2024-01-30T08:12:40;102866.88;;;3.31;70.88
82006;BME280;71529;47.484;19.064;2024-01-30T08:15:11;102868.59;;;3.32;70.92
82006;BME280;71529;47.484;19.064;2024-01-30T08:17:41;102873.75;;;3.39;75.03
82006;BME280;71529;47.484;19.064;2024-01-30T08:20:13;102868.50;;;3.38;73.73
82006;BME280;71529;47.484;19.064;2024-01-30T08:22:42;102870.13;;;3.45;71.25
82006;BME280;71529;47.484;19.064;2024-01-30T08:25:11;102859.38;;;3.54;74.52
82006;BME280;71529;47.484;19.064;2024-01-30T08:27:40;102869.00;;;3.57;73.45
82006;BME280;71529;47.484;19.064;2024-01-30T08:30:10;102868.75;;;3.70;75.72
82006;BME280;71529;47.484;19.064;2024-01-30T08:32:39;102870.34;;;3.76;74.89
82006;BME280;71529;47.484;19.064;2024-01-30T08:35:09;102877.69;;;3.63;70.92
82006;BME280;71529;47.484;19.064;2024-01-30T08:37:42;102879.34;;;3.67;71.07
82006;BME280;71529;47.484;19.064;2024-01-30T08:40:10;102879.22;;;3.75;70.89
82006;BME280;71529;47.484;19.064;2024-01-30T08:42:41;102873.63;;;3.88;71.27
82006;BME280;71529;47.484;19.064;2024-01-30T08:45:10;102883.31;;;3.89;74.10
82006;BME280;71529;47.484;19.064;2024-01-30T08:47:38;102881.59;;;3.87;74.51
82006;BME280;71529;47.484;19.064;2024-01-30T08:50:09;102885.94;;;3.91;76.41
82006;BME280;71529;47.484;19.064;2024-01-30T08:52:38;102878.53;;;4.06;76.20
82006;BME280;71529;47.484;19.064;2024-01-30T08:55:12;102870.13;;;3.88;72.25
82006;BME280;71529;47.484;19.064;2024-01-30T08:57:41;102873.63;;;3.88;72.03
82006;BME280;71529;47.484;19.064;2024-01-30T09:00:12;102871.00;;;3.87;73.52
82006;BME280;71529;47.484;19.064;2024-01-30T09:02:41;102868.38;;;3.87;71.05
82006;BME280;71529;47.484;19.064;2024-01-30T09:05:10;102866.66;;;3.86;74.18
82006;BME280;71529;47.484;19.064;2024-01-30T09:07:39;102865.66;;;3.90;73.16
82006;BME280;71529;47.484;19.064;2024-01-30T09:10:11;102859.44;;;3.92;71.46
82006;BME280;71529;47.484;19.064;2024-01-30T09:12:40;102859.56;;;3.86;69.60
82006;BME280;71529;47.484;19.064;2024-01-30T09:15:09;102859.78;;;3.77;70.82
82006;BME280;71529;47.484;19.064;2024-01-30T09:17:39;102867.44;;;3.89;73.09
82006;BME280;71529;47.484;19.064;2024-01-30T09:20:09;102862.63;;;4.08;70.68
82006;BME280;71529;47.484;19.064;2024-01-30T09:22:38;102860.91;;;4.07;73.49
82006;BME280;71529;47.484;19.064;2024-01-30T09:25:07;102861.75;;;4.07;72.70
82006;BME280;71529;47.484;19.064;2024-01-30T09:27:39;102860.84;;;4.08;73.28
82006;BME280;71529;47.484;19.064;2024-01-30T09:30:08;102858.72;;;4.24;75.60
82006;BME280;71529;47.484;19.064;2024-01-30T09:32:39;102861.63;;;4.13;71.99
82006;BME280;71529;47.484;19.064;2024-01-30T09:35:08;102860.50;;;4.23;73.67
82006;BME280;71529;47.484;19.064;2024-01-30T09:37:37;102856.56;;;4.41;76.18
82006;BME280;71529;47.484;19.064;2024-01-30T09:40:08;102856.47;;;4.45;73.37
82006;BME280;71529;47.484;19.064;2024-01-30T09:42:40;102865.59;;;4.32;70.94
82006;BME280;71529;47.484;19.064;2024-01-30T09:45:13;102857.19;;;4.52;71.43
82006;BME280;71529;47.484;19.064;2024-01-30T09:47:45;102852.81;;;4.49;70.12
82006;BME280;71529;47.484;19.064;2024-01-30T09:50:15;102853.91;;;4.41;73.48
82006;BME280;71529;47.484;19.064;2024-01-30T09:52:44;102850.50;;;4.36;72.80
82006;BME280;71529;47.484;19.064;2024-01-30T09:55:13;102850.41;;;4.40;71.62
82006;BME280;71529;47.484;19.064;2024-01-30T09:57:45;102853.63;;;4.53;74.37
82006;BME280;71529;47.484;19.064;2024-01-30T10:00:15;102855.94;;;4.67;73.88
82006;BME280;71529;47.484;19.064;2024-01-30T10:02:44;102854.25;;;4.64;72.98
82006;BME280;71529;47.484;19.064;2024-01-30T10:05:15;102853.78;;;4.82;74.27
82006;BME280;71529;47.484;19.064;2024-01-30T10:07:52;102861.56;;;4.90;71.22
82006;BME280;71529;47.484;19.064;2024-01-30T10:10:22;102859.97;;;4.81;74.08
82006;BME280;71529;47.484;19.064;2024-01-30T10:12:54;102855.47;;;4.86;75.58
82006;BME280;71529;47.484;19.064;2024-01-30T10:15:23;102850.06;;;4.89;73.15
82006;BME280;71529;47.484;19.064;2024-01-30T10:17:52;102860.44;;;4.98;73.36
82006;BME280;71529;47.484;19.064;2024-01-30T10:20:21;102843.66;;;4.98;73.32
82006;BME280;71529;47.484;19.064;2024-01-30T10:22:50;102856.88;;;4.99;72.59
82006;BME280;71529;47.484;19.064;2024-01-30T10:25:21;102843.81;;;4.92;73.16
82006;BME280;71529;47.484;19.064;2024-01-30T10:27:55;102840.88;;;5.04;70.96
82006;BME280;71529;47.484;19.064;2024-01-30T10:30:24;102836.47;;;5.03;73.29
82006;BME280;71529;47.484;19.064;2024-01-30T10:32:54;102826.06;;;4.97;72.59
82006;BME280;71529;47.484;19.064;2024-01-30T10:35:23;102837.22;;;5.08;72.17
82006;BME280;71529;47.484;19.064;2024-01-30T10:37:56;102832.03;;;5.03;73.48
82006;BME280;71529;47.484;19.064;2024-01-30T10:40:28;102829.34;;;5.05;73.54
82006;BME280;71529;47.484;19.064;2024-01-30T10:43:01;102824.94;;;5.05;70.90
82006;BME280;71529;47.484;19.064;2024-01-30T10:45:31;102818.66;;;5.08;71.38
82006;BME280;71529;47.484;19.064;2024-01-30T10:47:59;102814.09;;;5.14;72.26
82006;BME280;71529;47.484;19.064;2024-01-30T10:50:30;102816.56;;;5.20;76.08
82006;BME280;71529;47.484;19.064;2024-01-30T10:53:01;102803.09;;;5.28;72.73
82006;BME280;71529;47.484;19.064;2024-01-30T10:55:31;102796.03;;;5.27;72.15
82006;BME280;71529;47.484;19.064;2024-01-30T10:58:03;102798.75;;;5.25;74.89
82006;BME280;71529;47.484;19.064;2024-01-30T11:00:33;102790.69;;;5.30;74.09
82006;BME280;71529;47.484;19.064;2024-01-30T11:03:03;102791.56;;;5.29;70.86
82006;BME280;71529;47.484;19.064;2024-01-30T11:05:33;102783.53;;;5.32;71.51
82006;BME280;71529;47.484;19.064;2024-01-30T11:08:11;102791.63;;;5.56;74.21
82006;BME280;71529;47.484;19.064;2024-01-30T11:10:46;102783.88;;;5.50;70.90
82006;BME280;71529;47.484;19.064;2024-01-30T11:13:19;102785.25;;;5.63;72.83
82006;BME280;71529;47.484;19.064;2024-01-30T11:15:48;102781.03;;;5.58;70.60
82006;BME280;71529;47.484;19.064;2024-01-30T11:18:24;102781.53;;;5.69;73.74
82006;BME280;71529;47.484;19.064;2024-01-30T11:20:56;102772.59;;;5.73;73.29
82006;BME280;71529;47.484;19.064;2024-01-30T11:23:27;102772.69;;;5.70;70.77
82006;BME280;71529;47.484;19.064;2024-01-30T11:25:57;102772.38;;;5.81;68.01
82006;BME280;71529;47.484;19.064;2024-01-30T11:28:33;102765.84;;;5.63;70.16
82006;BME280;71529;47.484;19.064;2024-01-30T11:31:03;102771.31;;;5.57;71.43
82006;BME280;71529;47.484;19.064;2024-01-30T11:33:32;102765.91;;;5.60;70.60
82006;BME280;71529;47.484;19.064;2024-01-30T11:36:01;102768.28;;;5.69;72.23
82006;BME280;71529;47.484;19.064;2024-01-30T11:38:33;102763.69;;;5.76;70.62
82006;BME280;71529;47.484;19.064;2024-01-30T11:41:03;102764.34;;;5.82;69.89
82006;BME280;71529;47.484;19.064;2024-01-30T11:43:36;102755.53;;;5.82;68.28
82006;BME280;71529;47.484;19.064;2024-01-30T11:46:05;102753.72;;;5.84;68.66
82006;BME280;71529;47.484;19.064;2024-01-30T11:48:36;102762.31;;;5.92;70.47
82006;BME280;71529;47.484;19.064;2024-01-30T11:51:06;102752.53;;;5.94;68.53
82006;BME280;71529;47.484;19.064;2024-01-30T11:53:34;102748.75;;;6.01;68.83
82006;BME280;71529;47.484;19.064;2024-01-30T11:56:06;102744.56;;;5.94;68.13
82006;BME280;71529;47.484;19.064;2024-01-30T11:58:42;102739.31;;;5.92;68.53
82006;BME280;71529;47.484;19.064;2024-01-30T12:01:11;102735.75;;;5.93;69.41
82006;BME280;71529;47.484;19.064;2024-01-30T12:03:40;102726.53;;;6.05;69.43
82006;BME280;71529;47.484;19.064;2024-01-30T12:06:10;102728.31;;;6.04;68.72
82006;BME280;71529;47.484;19.064;2024-01-30T12:08:39;102725.53;;;6.09;68.68
82006;BME280;71529;47.484;19.064;2024-01-30T12:11:08;102721.03;;;6.11;70.25
82006;BME280;71529;47.484;19.064;2024-01-30T12:13:40;102721.09;;;6.08;69.14
82006;BME280;71529;47.484;19.064;2024-01-30T12:16:10;102712.97;;;6.14;67.34
82006;BME280;71529;47.484;19.064;2024-01-30T12:18:40;102708.59;;;6.11;69.15
82006;BME280;71529;47.484;19.064;2024-01-30T12:21:08;102714.75;;;6.13;70.55
82006;BME280;71529;47.484;19.064;2024-01-30T12:23:37;102705.75;;;6.17;70.38
82006;BME280;71529;47.484;19.064;2024-01-30T12:26:06;102699.63;;;6.15;67.88
82006;BME280;71529;47.484;19.064;2024-01-30T12:28:35;102701.47;;;6.13;68.57
82006;BME280;71529;47.484;19.064;2024-01-30T12:31:07;102703.16;;;6.16;66.98
82006;BME280;71529;47.484;19.064;2024-01-30T12:33:37;102704.06;;;6.15;67.98
82006;BME280;71529;47.484;19.064;2024-01-30T12:36:06;102701.22;;;6.21;69.87
82006;BME280;71529;47.484;19.064;2024-01-30T12:38:35;102696.78;;;6.21;67.76
82006;BME280;71529;47.484;19.064;2024-01-30T12:41:07;102693.97;;;6.26;68.60
82006;BME280;71529;47.484;19.064;2024-01-30T12:43:36;102694.94;;;6.23;65.82
82006;BME280;71529;47.484;19.064;2024-01-30T12:46:08;102692.38;;;6.20;67.61
82006;BME280;71529;47.484;19.064;2024-01-30T12:48:37;102686.81;;;6.28;67.36
82006;BME280;71529;47.484;19.064;2024-01-30T12:51:06;102690.66;;;6.19;67.88
82006;BME280;71529;47.484;19.064;2024-01-30T12:53:35;102682.66;;;6.21;66.79
82006;BME280;71529;47.484;19.064;2024-01-30T12:56:04;102678.97;;;6.25;67.42
82006;BME280;71529;47.484;19.064;2024-01-30T12:58:34;102675.22;;;6.30;66.86
82006;BME280;71529;47.484;19.064;2024-01-30T13:01:03;102672.13;;;6.44;68.56
82006;BME280;71529;47.484;19.064;2024-01-30T13:03:35;102671.22;;;6.43;65.58